createdAt,value
2022-11-19T00:00:39.300Z,-2.09
2022-11-19T00:01:39.271Z,-2.12
2022-11-19T00:02:39.546Z,-2.02
2022-11-19T00:03:39.491Z,-2.07
2022-11-19T00:04:39.210Z,-2.15
2022-11-19T00:05:39.479Z,-2.12
2022-11-19T00:06:39.584Z,-2.17
2022-11-19T00:07:39.531Z,-2.14
2022-11-19T00:08:39.126Z,-2.14
2022-11-19T00:09:39.361Z,-2.21
2022-11-19T00:10:39.347Z,-2.18
2022-11-19T00:11:39.321Z,-2.12
2022-11-19T00:12:39.078Z,-2.17
2022-11-19T00:13:39.292Z,-2.23
2022-11-19T00:14:39.014Z,-2.18
2022-11-19T00:15:38.983Z,-2.24
2022-11-19T00:16:38.968Z,-2.2
2022-11-19T00:17:39.197Z,-2.21
2022-11-19T00:18:39.177Z,-2.25
2022-11-19T00:19:38.650Z,-2.18
2022-11-19T00:20:38.873Z,-2.18
2022-11-19T00:21:38.630Z,-2.15
2022-11-19T00:22:38.862Z,-2.17
2022-11-19T00:23:39.104Z,-2.15
2022-11-19T00:24:39.054Z,-2.07
2022-11-19T00:25:38.534Z,-2.07
2022-11-19T00:26:38.764Z,-2.12
2022-11-19T00:27:38.989Z,-2.24
2022-11-19T00:28:38.968Z,-2.2
2022-11-19T00:29:38.954Z,-2.18
2022-11-19T00:30:52.981Z,-2.14
2022-11-19T00:31:38.905Z,-2.1
2022-11-19T00:32:38.679Z,-2.14
2022-11-19T00:33:38.859Z,-2.2
2022-11-19T00:34:38.596Z,-2.2
2022-11-19T00:35:38.824Z,-2.21
2022-11-19T00:36:38.289Z,-2.27
2022-11-19T00:37:38.865Z,-2.21
2022-11-19T00:38:38.565Z,-2.23
2022-11-19T00:39:38.789Z,-2.27
2022-11-19T00:40:38.463Z,-2.27
2022-11-19T00:41:38.458Z,-2.36
2022-11-19T00:42:38.426Z,-2.4
2022-11-19T00:43:38.407Z,-2.37
2022-11-19T03:50:03.653Z,-2.49
2022-11-19T03:51:03.302Z,-2.5
2022-11-19T03:52:03.270Z,-2.5
2022-11-19T03:53:08.350Z,-2.53
2022-11-19T03:54:03.343Z,-2.62
2022-11-19T03:55:03.246Z,-2.6
2022-11-19T03:56:03.191Z,-2.54
2022-11-19T03:57:03.423Z,-2.65
2022-11-19T03:58:03.144Z,-2.61
2022-11-19T03:59:03.397Z,-2.64
2022-11-19T04:00:03.106Z,-2.6
2022-11-19T04:01:03.347Z,-2.7
2022-11-19T04:02:03.066Z,-2.61
2022-11-19T04:03:03.039Z,-2.65
2022-11-19T04:04:03.013Z,-2.73
2022-11-19T04:05:02.743Z,-2.82
2022-11-19T04:06:03.305Z,-2.75
2022-11-19T04:07:03.364Z,-2.83
2022-11-19T04:08:03.186Z,-2.78
2022-11-19T04:09:03.165Z,-2.82
2022-11-19T04:10:02.894Z,-2.78
2022-11-19T04:12:03.100Z,-2.86
2022-11-19T04:13:03.097Z,-2.85
2022-11-19T04:14:02.807Z,-2.82
2022-11-19T04:15:03.044Z,-2.83
2022-11-19T04:16:02.759Z,-2.86
2022-11-19T04:17:02.491Z,-2.82
2022-11-19T04:18:02.977Z,-2.91
2022-11-19T04:19:02.952Z,-2.86
2022-11-19T04:20:02.934Z,-2.83
2022-11-19T04:21:02.657Z,-2.85
2022-11-19T04:22:02.966Z,-2.83
2022-11-19T04:23:02.639Z,-2.94
2022-11-19T04:24:02.340Z,-2.88
2022-11-19T04:25:02.577Z,-3
2022-11-19T04:26:02.806Z,-3.03
2022-11-19T04:27:02.788Z,-2.97
2022-11-19T04:28:02.519Z,-3.07
2022-11-19T04:29:02.497Z,-3.07
2022-11-19T04:30:02.753Z,-3.04
2022-11-19T04:31:02.710Z,-3.03
2022-11-19T04:32:02.437Z,-3.01
2022-11-19T04:33:02.670Z,-2.99
2022-11-19T04:34:02.388Z,-3.04
2022-11-19T04:35:02.382Z,-3.03
2022-11-19T04:36:02.335Z,-3.07
2022-11-19T04:37:02.572Z,-3.07
2022-11-19T04:38:02.630Z,-3.06
2022-11-19T04:39:02.023Z,-3.04
2022-11-19T04:40:02.283Z,-3.09
2022-11-19T04:41:02.494Z,-3.01
2022-11-19T04:42:02.484Z,-2.99
2022-11-19T04:43:02.449Z,-2.99
2022-11-19T04:44:01.910Z,-2.88
2022-11-19T04:45:02.402Z,-3.03
2022-11-19T04:46:02.123Z,-2.97
2022-11-19T04:47:02.357Z,-3.04
2022-11-19T04:48:02.342Z,-2.97
2022-11-19T04:49:02.057Z,-2.97
2022-11-19T04:50:01.787Z,-2.97
2022-11-19T04:51:02.271Z,-3
2022-11-19T04:52:01.742Z,-3
2022-11-19T04:53:01.984Z,-2.93
2022-11-19T04:54:02.300Z,-2.91
2022-11-19T04:55:01.949Z,-2.96
2022-11-19T04:56:01.910Z,-3
2022-11-19T04:57:02.146Z,-2.91
2022-11-19T04:58:01.618Z,-2.97
2022-11-19T04:59:01.588Z,-2.91
2022-11-19T05:00:02.088Z,-2.88
2022-11-19T05:01:02.070Z,-3.03
2022-11-19T05:02:01.957Z,-2.94
2022-11-19T05:03:01.769Z,-3.04
2022-11-19T05:04:01.744Z,-3.03
2022-11-19T05:05:01.725Z,-3.06
2022-11-19T05:06:01.703Z,-3.06
2022-11-19T05:07:01.896Z,-3.06
2022-11-19T05:08:01.666Z,-3
2022-11-19T05:09:01.895Z,-3.03
2022-11-19T05:10:01.957Z,-3.03
2022-11-19T05:11:01.849Z,-2.96
2022-11-19T05:12:01.576Z,-3.03
2022-11-19T05:13:01.809Z,-3.04
2022-11-19T05:14:01.538Z,-3.03
2022-11-19T05:15:01.507Z,-3.04
2022-11-19T05:16:01.492Z,-3.06
2022-11-19T05:17:01.730Z,-3.04
2022-11-19T05:18:01.716Z,-3.06
2022-11-19T05:19:01.686Z,-3.04
2022-11-19T05:20:01.412Z,-3.01
2022-11-19T05:21:01.390Z,-3.03
2022-11-19T05:22:01.364Z,-3.03
2022-11-19T05:23:01.082Z,-3.03
2022-11-19T05:24:01.073Z,-3.04
2022-11-19T05:25:01.561Z,-3.07
2022-11-19T05:26:01.608Z,-3.06
2022-11-19T05:27:01.004Z,-2.96
2022-11-19T05:28:00.987Z,-3.07
2022-11-19T05:29:00.958Z,-2.97
2022-11-19T05:30:01.450Z,-3.04
2022-11-19T05:31:01.427Z,-2.96
2022-11-19T05:32:01.160Z,-3.06
2022-11-19T05:33:01.395Z,-3.01
2022-11-19T05:34:01.368Z,-3.09
2022-11-19T05:35:01.346Z,-3.07
2022-11-19T05:36:01.329Z,-3.03
2022-11-19T05:37:01.313Z,-2.97
2022-11-19T05:38:00.764Z,-3.12
2022-11-19T05:39:00.753Z,-3.12
2022-11-19T05:40:00.983Z,-3.07
2022-11-19T05:41:01.221Z,-3.03
2022-11-19T05:42:01.278Z,-3.03
2022-11-19T05:43:01.175Z,-2.97
2022-11-19T05:44:00.894Z,-3
2022-11-19T05:45:00.621Z,-3.01
2022-11-19T05:46:00.851Z,-3.01
2022-11-19T05:47:00.586Z,-3
2022-11-19T05:48:01.071Z,-2.99
2022-11-19T05:49:00.794Z,-2.99
2022-11-19T05:50:00.774Z,-2.96
2022-11-19T05:51:00.757Z,-3.04
2022-11-19T05:52:00.732Z,-3.09
2022-11-19T05:53:00.980Z,-3.09
2022-11-19T05:54:00.864Z,-3.04
2022-11-19T05:55:00.673Z,-3.07
2022-11-19T05:56:00.908Z,-3.09
2022-11-19T05:57:00.628Z,-3.04
2022-11-19T05:58:00.939Z,-3.03
2022-11-19T05:59:00.590Z,-3.06
2022-11-19T06:00:00.566Z,-3.03
2022-11-19T06:01:00.611Z,-3.04
2022-11-19T06:02:00.267Z,-3.09
2022-11-19T06:03:00.664Z,-3.06
2022-11-19T06:04:00.227Z,-3.17
2022-11-19T06:05:00.205Z,-3.09
2022-11-19T06:06:00.444Z,-3.11
2022-11-19T06:07:00.542Z,-3.11
2022-11-19T06:08:00.405Z,-3.14
2022-11-19T06:09:00.375Z,-3.12
2022-11-19T06:10:00.350Z,-3.14
2022-11-19T06:11:00.342Z,-3.28
2022-11-19T06:12:00.569Z,-3.15
2022-11-19T06:13:00.289Z,-3.06
2022-11-19T06:14:00.595Z,-3.12
2022-11-19T06:15:00.515Z,-3.17
2022-11-19T06:15:59.966Z,-3.17
2022-11-19T06:17:00.205Z,-3.15
2022-11-19T06:18:00.185Z,-3.22
2022-11-19T06:19:00.163Z,-3.15
2022-11-19T06:20:00.143Z,-3.17
2022-11-19T06:21:00.380Z,-3.12
2022-11-19T06:22:00.101Z,-3.17
2022-11-19T06:23:00.332Z,-3.03
2022-11-19T06:24:00.325Z,-3.15
2022-11-19T06:25:00.309Z,-3.14
2022-11-19T06:26:00.307Z,-3.12
2022-11-19T06:27:00.247Z,-3.12
2022-11-19T06:27:59.719Z,-3.11
2022-11-19T06:29:00.207Z,-3.21
2022-11-19T06:30:01.360Z,-3.11
2022-11-19T06:30:59.911Z,-3.09
2022-11-19T06:31:59.632Z,-3.15
2022-11-19T06:33:00.123Z,-3.15
2022-11-19T06:34:00.112Z,-3.18
2022-11-19T06:35:00.098Z,-3.03
2022-11-19T06:36:00.107Z,-3.07
2022-11-19T06:37:00.045Z,-3.11
2022-11-19T06:37:59.788Z,-3.14
2022-11-19T06:38:59.996Z,-3.11
2022-11-19T06:39:59.726Z,-3.01
2022-11-19T06:40:59.697Z,-3.07
2022-11-19T06:41:59.424Z,-3.09
2022-11-19T06:42:59.401Z,-2.99
2022-11-19T06:43:59.386Z,-2.96
2022-11-19T06:44:59.615Z,-2.97
2022-11-19T06:45:59.928Z,-3.03
2022-11-19T06:46:59.317Z,-2.93
2022-11-19T06:47:59.814Z,-2.94
2022-11-19T06:48:59.276Z,-2.93
2022-11-19T06:49:59.520Z,-2.93
2022-11-19T06:50:59.567Z,-2.96
2022-11-19T06:51:59.804Z,-2.97
2022-11-19T06:52:59.785Z,-2.88
2022-11-19T06:53:59.507Z,-2.94
2022-11-19T06:54:59.743Z,-2.85
2022-11-19T06:55:59.465Z,-2.91
2022-11-19T06:56:59.697Z,-2.88
2022-11-19T06:57:59.422Z,-2.88
2022-11-19T06:58:59.653Z,-2.9
2022-11-19T06:59:59.391Z,-2.97
2022-11-19T07:00:59.363Z,-3
2022-11-19T07:01:59.831Z,-2.94
2022-11-19T07:02:59.576Z,-3.01
2022-11-19T07:03:59.299Z,-3
2022-11-19T07:04:59.280Z,-2.96
2022-11-19T07:05:59.516Z,-2.99
2022-11-19T07:06:59.579Z,-2.91
2022-11-19T07:08:06.104Z,-2.9
2022-11-19T07:08:59.458Z,-2.93
2022-11-19T07:09:59.424Z,-2.85
2022-11-19T07:10:59.407Z,-2.88
2022-11-19T07:11:59.134Z,-2.88
2022-11-19T07:12:59.360Z,-2.9
2022-11-19T07:13:59.346Z,-2.85
2022-11-19T07:15:06.425Z,-2.88
2022-11-19T07:15:59.300Z,-2.85
2022-11-19T07:16:59.034Z,-2.88
2022-11-19T07:17:59.358Z,-2.86
2022-11-19T07:18:59.244Z,-2.83
2022-11-19T07:19:58.962Z,-2.81
2022-11-19T07:20:58.945Z,-2.78
2022-11-19T07:21:59.195Z,-2.67
2022-11-19T07:23:03.724Z,-2.68
2022-11-19T07:23:59.128Z,-2.76
2022-11-19T07:24:58.854Z,-2.7
2022-11-19T07:25:58.581Z,-2.65
2022-11-19T07:26:58.811Z,-2.68
2022-11-19T07:27:58.537Z,-2.67
2022-11-19T07:29:05.526Z,-2.72
2022-11-19T07:29:59.010Z,-2.75
2022-11-19T07:30:58.734Z,-2.72
2022-11-19T07:31:59.604Z,-2.68
2022-11-19T07:32:59.584Z,-2.6
2022-11-19T07:34:00.313Z,-2.55
2022-11-19T07:34:59.307Z,-2.47
2022-11-19T07:35:59.517Z,-2.46
2022-11-19T07:36:59.761Z,-2.4
2022-11-19T07:37:59.468Z,-2.27
2022-11-19T07:38:59.706Z,-2.37
2022-11-19T07:39:59.430Z,-2.24
2022-11-19T07:40:59.412Z,-2.24
2022-11-19T07:41:59.401Z,-2.18
2022-11-19T07:42:59.623Z,-2.12
2022-11-19T07:43:59.603Z,-2.21
2022-11-19T07:44:59.817Z,-2.14
2022-11-19T07:45:59.306Z,-2
2022-11-19T07:46:59.025Z,-1.91
2022-11-19T07:47:59.522Z,-2.06
2022-11-19T07:48:59.510Z,-1.96
2022-11-19T07:49:59.551Z,-1.92
2022-11-19T07:51:00.945Z,-1.91
2022-11-19T07:51:59.205Z,-1.91
2022-11-19T07:52:59.420Z,-1.84
2022-11-19T07:53:59.405Z,-1.88
2022-11-19T07:54:59.373Z,-1.86
2022-11-19T07:55:58.845Z,-1.99
2022-11-19T07:56:58.824Z,-1.96
2022-11-19T07:57:59.060Z,-1.84
2022-11-19T07:58:59.033Z,-1.91
2022-11-19T07:59:58.750Z,-1.92
2022-11-19T08:00:59.253Z,-1.86
2022-11-19T08:01:59.189Z,-1.99
2022-11-19T08:02:59.205Z,-1.97
2022-11-19T08:04:01.622Z,-1.94
2022-11-19T08:04:58.653Z,-2.09
2022-11-19T08:05:59.215Z,-2.02
2022-11-19T08:06:58.736Z,-2.06
2022-11-19T08:07:58.844Z,-2.09
2022-11-19T08:08:58.825Z,-2.09
2022-11-19T08:09:58.804Z,-2.03
2022-11-19T08:10:58.535Z,-2.03
2022-11-19T08:11:58.762Z,-1.96
2022-11-19T08:12:58.746Z,-1.97
2022-11-19T08:13:59.007Z,-1.89
2022-11-19T08:14:58.960Z,-1.99
2022-11-19T08:15:58.684Z,-2.02
2022-11-19T08:16:58.915Z,-1.86
2022-11-19T08:17:58.640Z,-1.82
2022-11-19T08:18:58.360Z,-1.79
2022-11-19T08:19:58.598Z,-1.67
2022-11-19T08:20:58.322Z,-1.73
2022-11-19T08:21:58.890Z,-1.61
2022-11-19T08:22:58.789Z,-1.63
2022-11-19T08:23:58.772Z,-1.56
2022-11-19T08:24:58.506Z,-1.48
2022-11-19T08:25:58.494Z,-1.49
2022-11-19T08:26:58.195Z,-1.5
2022-11-19T08:27:58.694Z,-1.42
2022-11-19T08:28:58.705Z,-1.34
2022-11-19T08:29:58.669Z,-1.4
2022-11-19T08:30:58.626Z,-1.34
2022-11-19T08:31:58.346Z,-1.28
2022-11-19T08:32:58.595Z,-1.27
2022-11-19T08:33:58.575Z,-1.11
2022-11-19T08:34:58.306Z,-1.13
2022-11-19T08:35:58.532Z,-1.04
2022-11-19T08:36:58.254Z,-0.96
2022-11-19T08:37:58.833Z,-1.03
2022-11-19T08:38:58.214Z,-0.98
2022-11-19T08:39:58.229Z,-0.89
2022-11-19T08:40:58.689Z,-0.87
2022-11-19T08:41:58.407Z,-0.91
2022-11-19T08:42:58.410Z,-0.85
2022-11-19T08:43:58.384Z,-0.82
2022-11-19T08:44:58.341Z,-0.82
2022-11-19T08:45:58.607Z,-0.91
2022-11-19T08:46:58.308Z,-0.8
2022-11-19T08:47:58.697Z,-0.79
2022-11-19T08:48:58.286Z,-0.82
2022-11-19T08:49:58.264Z,-0.73
2022-11-19T08:50:58.518Z,-0.76
2022-11-19T08:51:58.211Z,-0.76
2022-11-19T08:52:57.934Z,-0.85
2022-11-19T08:53:58.509Z,-0.85
2022-11-19T08:54:58.410Z,-0.85
2022-11-19T08:55:58.136Z,-0.91
2022-11-19T08:56:58.363Z,-0.92
2022-11-19T08:57:58.345Z,-0.87
2022-11-19T08:59:05.335Z,-0.85
2022-11-19T09:00:02.933Z,-0.76
2022-11-19T09:00:58.214Z,-0.79
2022-11-19T09:01:57.750Z,-0.82
2022-11-19T09:02:57.737Z,-0.84
2022-11-19T09:03:58.235Z,-0.76
2022-11-19T09:04:57.691Z,-0.72
2022-11-19T09:05:57.922Z,-0.85
2022-11-19T09:06:58.087Z,-0.79
2022-11-19T09:07:57.882Z,-0.8
2022-11-19T09:08:57.864Z,-0.89
2022-11-19T09:09:58.173Z,-0.85
2022-11-19T09:10:58.136Z,-0.84
2022-11-19T09:11:57.554Z,-0.84
2022-11-19T09:12:58.037Z,-0.91
2022-11-19T09:13:57.757Z,-0.92
2022-11-19T09:14:57.755Z,-0.89
2022-11-19T09:15:57.976Z,-0.87
2022-11-19T09:16:57.698Z,-0.91
2022-11-19T09:17:57.933Z,-0.84
2022-11-19T09:18:58.713Z,-0.91
2022-11-19T09:19:58.427Z,-0.84
2022-11-19T09:20:58.158Z,-0.93
2022-11-19T09:21:58.644Z,-0.84
2022-11-19T09:22:58.368Z,-0.8
2022-11-19T09:23:58.358Z,-0.74
2022-11-19T09:24:58.583Z,-0.73
2022-11-19T09:25:58.642Z,-0.8
2022-11-19T09:27:04.801Z,-0.72
2022-11-19T09:27:58.360Z,-0.76
2022-11-19T09:28:57.993Z,-0.72
2022-11-19T09:29:58.483Z,-0.67
2022-11-19T09:30:58.208Z,-0.7
2022-11-19T09:31:58.439Z,-0.67
2022-11-19T09:32:58.418Z,-0.73
2022-11-19T09:33:58.399Z,-0.7
2022-11-19T09:34:58.124Z,-0.66
2022-11-19T09:35:58.365Z,-0.76
2022-11-19T09:36:58.101Z,-0.72
2022-11-19T09:37:58.068Z,-0.7
2022-11-19T09:38:58.297Z,-0.66
2022-11-19T09:39:58.023Z,-0.72
2022-11-19T09:40:58.001Z,-0.72
2022-11-19T09:41:58.307Z,-0.79
2022-11-19T09:42:57.964Z,-0.8
2022-11-19T09:43:57.955Z,-0.77
2022-11-19T09:44:57.920Z,-0.77
2022-11-19T09:45:58.152Z,-0.85
2022-11-19T09:46:57.638Z,-0.82
2022-11-19T09:47:57.866Z,-0.79
2022-11-19T09:48:58.114Z,-0.8
2022-11-19T09:49:58.083Z,-0.69
2022-11-19T09:50:58.325Z,-0.67
2022-11-19T09:51:57.776Z,-0.66
2022-11-19T09:52:58.017Z,-0.64
2022-11-19T09:53:57.492Z,-0.62
2022-11-19T09:54:57.745Z,-0.58
2022-11-19T09:55:57.697Z,-0.46
2022-11-19T09:57:04.293Z,-0.48
2022-11-19T09:57:58.029Z,-0.38
2022-11-19T09:58:57.391Z,-0.3
2022-11-19T09:59:57.359Z,-0.36
2022-11-19T10:00:57.345Z,-0.23
2022-11-19T10:01:57.833Z,-0.34
2022-11-19T10:02:57.988Z,-0.2
2022-11-19T10:03:57.799Z,-0.18
2022-11-19T10:04:57.810Z,-0.13
2022-11-19T10:05:57.239Z,-0.19
2022-11-19T10:06:57.671Z,-0.09
2022-11-19T10:07:57.716Z,-0.07
2022-11-19T10:08:57.690Z,-0.02
2022-11-19T10:09:57.678Z,0.01
2022-11-19T10:10:57.672Z,0.01
2022-11-19T10:11:57.377Z,-0.02
2022-11-19T10:12:57.129Z,-0.01
2022-11-19T10:13:57.664Z,-0.09
2022-11-19T10:14:57.317Z,-0.05
2022-11-19T10:15:57.300Z,-0.04
2022-11-19T10:16:57.273Z,-0.02
2022-11-19T10:17:57.258Z,0.1
2022-11-19T10:18:57.446Z,0.17
2022-11-19T10:19:57.260Z,0.06
2022-11-19T10:20:57.457Z,0.23
2022-11-19T10:21:57.181Z,0.16
2022-11-19T10:23:02.150Z,0.19
2022-11-19T10:23:57.161Z,0.17
2022-11-19T10:24:56.860Z,0.2
2022-11-19T10:25:56.846Z,0.17
2022-11-19T10:26:57.343Z,0.16
2022-11-19T10:27:57.081Z,0.16
2022-11-19T10:28:57.063Z,0.19
2022-11-19T10:29:57.341Z,0.17
2022-11-19T10:30:56.999Z,0.1
2022-11-19T10:31:56.982Z,0.13
2022-11-19T10:32:57.226Z,0.13
2022-11-19T10:33:56.702Z,0.17
2022-11-19T10:34:56.698Z,0.14
2022-11-19T10:35:57.162Z,0.17
2022-11-19T10:36:57.145Z,0.17
2022-11-19T10:37:56.864Z,0.17
2022-11-19T10:38:57.106Z,0.2
2022-11-19T10:39:56.575Z,0.1
2022-11-19T10:40:56.804Z,0.17
2022-11-19T10:41:56.786Z,0.17
2022-11-19T10:42:56.770Z,0.14
2022-11-19T10:43:57.004Z,0.17
2022-11-19T10:44:57.008Z,0.17
2022-11-19T10:45:57.020Z,0.17
2022-11-19T10:46:56.687Z,0.16
2022-11-19T10:47:56.413Z,0.2
2022-11-19T10:48:56.406Z,0.17
2022-11-19T10:49:56.880Z,0.34
2022-11-19T10:50:56.867Z,0.32
2022-11-19T10:51:56.611Z,0.37
2022-11-19T10:52:56.583Z,0.26
2022-11-19T10:53:56.295Z,0.26
2022-11-19T10:54:56.279Z,0.32
2022-11-19T10:55:59.652Z,0.26
2022-11-19T10:56:56.513Z,0.41
2022-11-19T10:57:56.724Z,0.38
2022-11-19T10:58:56.467Z,0.35
2022-11-19T10:59:56.433Z,0.39
2022-11-19T11:00:56.678Z,0.42
2022-11-19T11:01:56.702Z,0.45
2022-11-19T11:02:56.633Z,0.44
2022-11-19T11:03:56.362Z,0.37
2022-11-19T11:04:56.340Z,0.28
2022-11-19T11:05:56.317Z,0.34
2022-11-19T11:06:56.672Z,0.26
2022-11-19T11:07:56.865Z,0.38
2022-11-19T11:08:56.253Z,0.35
2022-11-19T11:09:56.502Z,0.39
2022-11-19T11:10:56.480Z,0.34
2022-11-19T11:11:56.197Z,0.39
2022-11-19T11:12:56.188Z,0.35
2022-11-19T11:13:56.161Z,0.38
2022-11-19T11:14:56.407Z,0.37
2022-11-19T11:15:56.130Z,0.35
2022-11-19T11:16:56.127Z,0.24
2022-11-19T11:17:56.386Z,0.19
2022-11-19T11:18:56.322Z,0.16
2022-11-19T11:19:56.047Z,0.2
2022-11-19T11:20:56.028Z,0.23
2022-11-19T11:21:56.021Z,0.17
2022-11-19T11:22:55.726Z,0.16
2022-11-19T11:23:56.224Z,0.16
2022-11-19T11:24:55.945Z,-0.01
2022-11-19T11:25:55.928Z,0.01
2022-11-19T11:26:56.164Z,-0.02
2022-11-19T11:27:55.904Z,-0.09
2022-11-19T11:28:55.881Z,-0.18
2022-11-19T11:29:56.107Z,-0.2
2022-11-19T11:30:56.086Z,-0.27
2022-11-19T11:31:55.816Z,-0.34
2022-11-19T11:32:56.069Z,-0.43
2022-11-19T11:33:56.190Z,-0.46
2022-11-19T11:34:56.009Z,-0.41
2022-11-19T11:35:55.744Z,-0.49
2022-11-19T11:36:55.457Z,-0.55
2022-11-19T11:37:55.948Z,-0.7
2022-11-19T11:38:55.667Z,-0.59
2022-11-19T11:39:55.909Z,-0.67
2022-11-19T11:42:22.552Z,-0.8
2022-11-19T11:43:22.793Z,-0.76
2022-11-19T11:44:22.516Z,-0.79
2022-11-19T11:45:22.823Z,-0.82
2022-11-19T11:46:22.477Z,-0.84
2022-11-19T11:47:22.715Z,-0.87
2022-11-19T11:48:22.462Z,-0.89
2022-11-19T11:49:23.179Z,-0.85
2022-11-19T11:50:22.395Z,-0.89
2022-11-19T11:51:22.121Z,-0.85
2022-11-19T11:52:22.366Z,-0.82
2022-11-19T11:53:23.037Z,-0.96
2022-11-19T11:54:23.602Z,-0.92
2022-11-19T11:55:23.140Z,-1.01
2022-11-19T11:56:23.490Z,-1.1
2022-11-19T11:57:23.209Z,-1.1
2022-11-19T11:58:22.940Z,-1.11
2022-11-19T11:59:24.146Z,-1.09
2022-11-19T12:00:23.162Z,-1.19
2022-11-19T12:01:22.897Z,-1.13
2022-11-19T12:02:23.517Z,-1.17
2022-11-19T12:03:23.101Z,-1.21
2022-11-19T12:04:23.366Z,-1.24
2022-11-19T12:05:23.570Z,-1.25
2022-11-19T12:06:23.291Z,-1.31
2022-11-19T12:07:23.541Z,-1.38
2022-11-19T12:08:29.581Z,-1.34
2022-11-19T12:09:24.246Z,-1.43
2022-11-19T12:10:23.225Z,-1.5
2022-11-19T12:11:23.187Z,-1.56
2022-11-19T12:12:23.166Z,-1.49
2022-11-19T12:13:23.149Z,-1.43
2022-11-19T12:14:22.868Z,-1.5
2022-11-19T12:15:23.107Z,-1.49
2022-11-19T12:16:23.086Z,-1.5
2022-11-19T12:17:22.806Z,-1.58
2022-11-19T12:18:22.543Z,-1.58
2022-11-19T12:19:24.070Z,-1.53
2022-11-19T12:20:22.818Z,-1.52
2022-11-19T12:21:23.038Z,-1.56
2022-11-19T12:22:22.712Z,-1.4
2022-11-19T12:23:22.455Z,-1.34
2022-11-19T12:24:22.418Z,-1.31
2022-11-19T12:25:22.912Z,-1.27
2022-11-19T12:26:22.876Z,-1.22
2022-11-19T12:27:22.606Z,-1.21
2022-11-19T12:28:22.584Z,-1.11
2022-11-19T12:29:23.497Z,-1.04
2022-11-19T12:30:22.797Z,-1.1
2022-11-19T12:31:26.201Z,-1.07
2022-11-19T12:32:22.497Z,-1.09
2022-11-19T12:33:22.736Z,-1.06
2022-11-19T12:34:22.721Z,-1.11
2022-11-19T12:35:22.447Z,-1.1
2022-11-19T12:36:22.702Z,-1.13
2022-11-19T12:37:22.704Z,-1.07
2022-11-19T12:38:22.396Z,-1.11
2022-11-19T12:39:23.161Z,-1.24
2022-11-19T12:40:22.341Z,-1.14
2022-11-19T12:41:22.574Z,-1.11
2022-11-19T12:42:22.293Z,-1.13
2022-11-19T12:43:22.288Z,-1.21
2022-11-19T12:44:22.252Z,-1.27
2022-11-19T12:45:22.274Z,-1.27
2022-11-19T12:46:22.215Z,-1.32
2022-11-19T12:47:22.204Z,-1.38
2022-11-19T12:48:22.170Z,-1.42
2022-11-19T12:49:23.417Z,-1.43
2022-11-19T12:50:22.133Z,-1.38
2022-11-19T12:51:22.378Z,-1.32
2022-11-19T12:52:22.373Z,-1.38
2022-11-19T12:53:22.374Z,-1.32
2022-11-19T12:54:37.033Z,-1.46
2022-11-19T12:55:22.027Z,-1.43
2022-11-19T12:56:22.012Z,-1.48
2022-11-19T12:57:22.246Z,-1.46
2022-11-19T12:58:21.719Z,-1.49
2022-11-19T12:59:23.389Z,-1.48
2022-11-19T13:00:21.935Z,-1.46
2022-11-19T13:01:22.398Z,-1.53
2022-11-19T13:02:22.142Z,-1.45
2022-11-19T13:03:22.122Z,-1.56
2022-11-19T13:04:21.845Z,-1.56
2022-11-19T13:05:21.835Z,-1.52
2022-11-19T13:06:22.774Z,-1.53
2022-11-19T13:07:21.993Z,-1.5
2022-11-19T13:08:21.780Z,-1.5
2022-11-19T13:09:23.033Z,-1.53
2022-11-19T13:10:21.725Z,-1.56
2022-11-19T13:11:21.953Z,-1.4
2022-11-19T13:12:21.680Z,-1.46
2022-11-19T13:13:21.918Z,-1.46
2022-11-19T13:14:22.090Z,-1.5
2022-11-19T13:15:21.812Z,-1.42
2022-11-19T13:16:22.051Z,-1.55
2022-11-19T13:17:21.762Z,-1.38
2022-11-19T13:18:22.002Z,-1.52
2022-11-19T13:19:22.822Z,-1.45
2022-11-19T13:20:21.963Z,-1.43
2022-11-19T13:21:21.942Z,-1.49
2022-11-19T13:22:21.708Z,-1.55
2022-11-19T13:23:21.388Z,-1.42
2022-11-19T13:24:21.909Z,-1.43
2022-11-19T13:25:21.914Z,-1.4
2022-11-19T13:26:21.839Z,-1.35
2022-11-19T13:27:27.842Z,-1.37
2022-11-19T13:28:21.803Z,-1.19
2022-11-19T13:29:22.345Z,-1.24
2022-11-19T13:30:21.754Z,-1.21
2022-11-19T13:31:21.480Z,-1.11
2022-11-19T13:32:21.478Z,-1.04
2022-11-19T13:33:21.183Z,-0.96
2022-11-19T13:34:21.423Z,-0.89
2022-11-19T13:35:21.683Z,-0.79
2022-11-19T13:36:21.636Z,-0.69
2022-11-19T13:37:21.619Z,-0.66
2022-11-19T13:38:21.096Z,-0.51
2022-11-19T13:39:22.463Z,-0.46
2022-11-19T13:40:21.344Z,-0.49
2022-11-19T13:41:21.661Z,-0.46
2022-11-19T13:42:21.265Z,-0.37
2022-11-19T13:43:37.028Z,-0.33
2022-11-19T13:44:21.254Z,-0.38
2022-11-19T13:45:21.455Z,-0.52
2022-11-19T13:46:21.208Z,-0.64
2022-11-19T13:47:21.155Z,-0.62
2022-11-19T13:48:21.394Z,-0.77
2022-11-19T13:49:22.095Z,-1.01
2022-11-19T13:50:21.095Z,-1.07
2022-11-19T13:51:21.079Z,-1.09
2022-11-19T13:52:21.321Z,-1.21
2022-11-19T13:53:21.034Z,-1.21
2022-11-19T13:54:21.274Z,-1.22
2022-11-19T13:55:20.998Z,-1.24
2022-11-19T13:56:20.992Z,-1.19
2022-11-19T13:57:21.267Z,-1.13
2022-11-19T13:58:20.929Z,-1.25
2022-11-19T13:59:21.533Z,-1.09
2022-11-19T14:00:20.893Z,-1.04
2022-11-19T14:01:20.757Z,-1.07
2022-11-19T14:02:20.855Z,-1.09
2022-11-19T14:03:21.101Z,-1.07
2022-11-19T14:04:20.815Z,-1.07
2022-11-19T14:05:20.791Z,-1.09
2022-11-19T14:06:21.027Z,-1.13
2022-11-19T14:07:21.192Z,-1.13
2022-11-19T14:08:20.472Z,-1.27
2022-11-19T14:09:21.703Z,-1.24
2022-11-19T14:10:20.683Z,-1.13
2022-11-19T14:11:20.669Z,-1.27
2022-11-19T14:12:20.676Z,-1.25
2022-11-19T14:13:20.945Z,-1.22
2022-11-19T14:14:20.347Z,-1.24
2022-11-19T14:15:20.593Z,-1.25
2022-11-19T14:16:20.565Z,-1.28
2022-11-19T14:17:20.806Z,-1.38
2022-11-19T14:18:20.266Z,-1.34
2022-11-19T14:19:21.572Z,-1.37
2022-11-19T14:20:20.745Z,-1.37
2022-11-19T14:21:20.234Z,-1.43
2022-11-19T14:22:20.442Z,-1.43
2022-11-19T14:23:20.426Z,-1.53
2022-11-19T14:24:20.401Z,-1.45
2022-11-19T14:25:20.643Z,-1.46
2022-11-19T14:26:20.613Z,-1.49
2022-11-19T14:27:20.597Z,-1.46
2022-11-19T14:28:20.600Z,-1.38
2022-11-19T14:29:21.471Z,-1.55
2022-11-19T14:30:20.575Z,-1.43
2022-11-19T14:31:20.259Z,-1.48
2022-11-19T14:32:20.243Z,-1.48
2022-11-19T14:33:20.486Z,-1.53
2022-11-19T14:34:20.197Z,-1.5
2022-11-19T14:35:19.922Z,-1.5
2022-11-19T14:36:20.450Z,-1.5
2022-11-19T14:37:20.387Z,-1.45
2022-11-19T14:38:20.119Z,-1.46
2022-11-19T14:39:20.200Z,-1.48
2022-11-19T14:40:20.073Z,-1.45
2022-11-19T14:41:20.054Z,-1.52
2022-11-19T14:42:20.036Z,-1.63
2022-11-19T14:43:20.032Z,-1.61
2022-11-19T14:44:20.018Z,-1.73
2022-11-19T14:45:20.277Z,-1.68
2022-11-19T14:46:19.692Z,-1.7
2022-11-19T14:47:19.930Z,-1.78
2022-11-19T14:48:20.172Z,-1.81
2022-11-19T14:49:20.898Z,-1.88
2022-11-19T14:50:19.867Z,-1.96
2022-11-19T14:51:19.592Z,-2.05
2022-11-19T14:52:20.084Z,-2.03
2022-11-19T14:53:19.820Z,-2.1
2022-11-19T14:54:20.529Z,-2.17
2022-11-19T14:55:20.014Z,-2.18
2022-11-19T14:56:19.488Z,-2.18
2022-11-19T14:57:19.468Z,-2.3
2022-11-19T14:58:19.961Z,-2.42
2022-11-19T14:59:19.940Z,-2.44
2022-11-19T15:00:19.691Z,-2.34
2022-11-19T15:01:25.618Z,-2.5
2022-11-19T15:02:19.876Z,-2.49
2022-11-19T15:03:20.098Z,-2.53
2022-11-19T15:04:20.071Z,-2.44
2022-11-19T15:05:19.302Z,-2.47
2022-11-19T15:06:19.534Z,-2.49
2022-11-19T15:07:19.701Z,-2.58
2022-11-19T15:08:19.495Z,-2.49
2022-11-19T15:09:19.721Z,-2.47
2022-11-19T15:10:19.706Z,-2.49
2022-11-19T15:11:19.694Z,-2.54
2022-11-19T15:12:19.406Z,-2.49
2022-11-19T15:13:19.390Z,-2.47
2022-11-19T15:14:20.064Z,-2.54
2022-11-19T15:15:19.090Z,-2.49
2022-11-19T15:16:19.360Z,-2.5
2022-11-19T15:17:19.641Z,-2.49
2022-11-19T15:18:19.544Z,-2.4
2022-11-19T15:19:19.921Z,-2.4
2022-11-19T15:20:19.501Z,-2.49
2022-11-19T15:21:19.221Z,-2.53
2022-11-19T15:22:19.457Z,-2.53
2022-11-19T15:23:19.428Z,-2.46
2022-11-19T15:24:19.156Z,-2.43
2022-11-19T15:25:20.122Z,-2.5
2022-11-19T15:26:19.386Z,-2.62
2022-11-19T15:27:19.095Z,-2.68
2022-11-19T15:28:19.074Z,-2.75
2022-11-19T15:29:19.662Z,-2.83
2022-11-19T15:30:19.300Z,-2.88
2022-11-19T15:31:19.015Z,-2.86
2022-11-19T15:32:19.022Z,-2.96
2022-11-19T15:33:19.273Z,-3.04
2022-11-19T15:34:18.947Z,-3.14
2022-11-19T15:35:18.924Z,-3.15
2022-11-19T15:36:19.166Z,-3.19
2022-11-19T15:37:19.593Z,-3.29
2022-11-19T15:38:24.933Z,-3.3
2022-11-19T15:39:20.936Z,-3.33
2022-11-19T15:40:20.360Z,-3.38
2022-11-19T15:41:20.153Z,-3.4
2022-11-19T15:42:20.132Z,-3.38
2022-11-19T15:43:20.372Z,-3.45
2022-11-19T15:44:20.353Z,-3.48
2022-11-19T15:45:20.330Z,-3.63
2022-11-19T15:46:20.307Z,-3.54
2022-11-19T15:47:19.775Z,-3.6
2022-11-19T15:48:20.033Z,-3.77
2022-11-19T15:49:20.837Z,-3.68
2022-11-19T15:50:19.964Z,-3.66
2022-11-19T15:51:20.204Z,-3.77
2022-11-19T15:52:22.969Z,-3.76
2022-11-19T15:53:20.154Z,-3.83
2022-11-19T15:54:19.628Z,-3.82
2022-11-19T15:55:19.858Z,-3.79
2022-11-19T15:56:20.093Z,-3.82
2022-11-19T15:57:20.111Z,-3.91
2022-11-19T15:58:19.797Z,-3.91
2022-11-19T15:59:20.611Z,-3.94
2022-11-19T16:00:20.037Z,-3.93
2022-11-19T16:01:20.228Z,-3.98
2022-11-19T16:02:19.707Z,-3.98
2022-11-19T16:03:19.948Z,-3.97
2022-11-19T16:04:19.732Z,-4.12
2022-11-19T16:05:19.950Z,-4.12
2022-11-19T16:06:19.619Z,-4.14